Terminal Aerodrome Forecast
Issued by NWS

Home | Current Version | Previous Version | Text Only | Print | Product List | Glossary On
Versions: 1 2 3 4 5 6 7 8 9 10 11 12 13 14 15 16 17 18
000
FTUS46 KEKA 241155
TAFCEC
TAF
KCEC 241155Z 2412/2512 16021G26KT 4SM RA BR OVC010
      TEMPO 2412/2413 5SM -RA BR BKN006
     FM241400 18013G20KT 2SM RA BR SCT004 OVC010
     FM241800 23010KT 4SM -SHRA BR SCT010 OVC015
     FM250200 18005KT P6SM -SHRA SCT020 OVC030
     FM251000 15005KT P6SM OVC060=

USA.gov is the U.S. government's official web portal to all federal, state and local government web resources and services.